Time;durP1;ratioP1;P1;durP2;ratioP2;P2;SDS_P1;SDS_P2;PMS_P1;PMS_P2;Temp;Humidity;BMP_temperature;BMP_pressure;BME280_temperature;BME280_humidity;BME280_pressure;Samples;Min_cycle;Max_cycle;Signal;HPM_P1;HPM_P2
2023/05/09 00:00:50;;;;;;;13.35;6.82;;;;;;;16.05;100.00;98711.38;5061997;28;20048;-80
2023/05/09 00:03:35;;;;;;;9.07;6.30;;;;;;;16.06;100.00;98708.47;5056141;28;20098;-80
2023/05/09 00:06:19;;;;;;;12.57;6.32;;;;;;;16.01;100.00;98697.81;5060016;28;20099;-81
2023/05/09 00:09:04;;;;;;;10.30;6.28;;;;;;;15.95;100.00;98709.34;5057152;28;20100;-80
2023/05/09 00:11:47;;;;;;;15.05;6.90;;;;;;;15.89;100.00;98710.28;5057574;28;20067;-80
2023/05/09 00:14:32;;;;;;;11.90;6.80;;;;;;;15.80;100.00;98707.19;5059789;28;20071;-81
2023/05/09 00:17:17;;;;;;;12.90;6.43;;;;;;;15.77;100.00;98692.59;5059748;28;20106;-81
2023/05/09 00:20:06;;;;;;;13.50;6.65;;;;;;;15.74;100.00;98687.78;5062963;28;20399;-80
2023/05/09 00:22:51;;;;;;;18.15;6.55;;;;;;;15.66;100.00;98683.69;5061630;28;20058;-80
2023/05/09 00:25:35;;;;;;;14.02;6.50;;;;;;;15.65;100.00;98682.06;5059144;28;20093;-81
2023/05/09 00:28:19;;;;;;;19.60;7.25;;;;;;;15.61;100.00;98669.53;5061182;28;20507;-81
2023/05/09 00:31:04;;;;;;;11.07;6.97;;;;;;;15.51;100.00;98668.28;5056104;28;20040;-81
2023/05/09 00:33:48;;;;;;;12.05;6.15;;;;;;;15.44;100.00;98654.41;5054848;28;20035;-80
2023/05/09 00:36:32;;;;;;;15.50;6.90;;;;;;;15.28;100.00;98659.41;5059357;28;20718;-80
2023/05/09 00:39:16;;;;;;;15.48;6.97;;;;;;;15.24;100.00;98660.13;5051210;28;20114;-80
2023/05/09 00:42:00;;;;;;;;;;;;;;;15.30;100.00;98658.38;5052204;28;20048;-80
2023/05/09 00:44:44;;;;;;;10.48;6.07;;;;;;;15.17;100.00;98654.97;5059410;28;20271;-80
2023/05/09 00:47:28;;;;;;;20.80;7.82;;;;;;;15.00;100.00;98644.31;5061861;28;20082;-80
2023/05/09 00:50:12;;;;;;;15.63;6.53;;;;;;;15.03;100.00;98643.06;5053292;28;20434;-80
2023/05/09 00:52:57;;;;;;;15.27;6.57;;;;;;;14.85;100.00;98637.69;5056916;28;20397;-79
2023/05/09 00:55:41;;;;;;;11.68;6.70;;;;;;;14.91;100.00;98635.94;5055460;28;20418;-80
2023/05/09 00:58:25;;;;;;;15.77;7.32;;;;;;;14.91;100.00;98629.88;5055225;28;20043;-80
2023/05/09 01:01:10;;;;;;;15.07;7.25;;;;;;;14.93;100.00;98636.50;5059769;28;20039;-80
2023/05/09 01:03:54;;;;;;;11.20;6.90;;;;;;;14.88;100.00;98635.63;5052475;28;20176;-80
2023/05/09 01:06:53;;;;;;;16.00;6.93;;;;;;;14.53;100.00;98627.47;5060326;28;20540;-80
2023/05/09 01:09:48;;;;;;;13.02;7.10;;;;;;;14.48;100.00;98629.19;5057943;28;20497;-80
2023/05/09 01:12:46;;;;;;;8.88;6.70;;;;;;;14.31;100.00;98626.44;5058766;28;20509;-80
2023/05/09 01:15:48;;;;;;;15.20;7.75;;;;;;;14.24;100.00;98623.91;5057964;28;20060;-80
2023/05/09 01:18:50;;;;;;;22.02;7.78;;;;;;;14.22;100.00;98629.41;5059436;28;20039;-80
2023/05/09 01:21:36;;;;;;;16.85;8.48;;;;;;;14.11;100.00;98624.94;5057900;28;20047;-78
2023/05/09 01:24:32;;;;;;;20.60;10.85;;;;;;;14.31;100.00;98616.66;5068325;28;20043;-79
2023/05/09 01:27:26;;;;;;;19.90;9.88;;;;;;;14.21;100.00;98613.81;5062090;28;20399;-79
2023/05/09 01:30:12;;;;;;;17.27;9.18;;;;;;;14.18;100.00;98607.13;5056353;28;20369;-79
2023/05/09 01:33:00;;;;;;;18.55;9.13;;;;;;;14.32;100.00;98607.72;5057449;28;20126;-79
2023/05/09 01:35:50;;;;;;;18.58;8.82;;;;;;;14.61;100.00;98601.72;5059723;28;20121;-79
2023/05/09 01:38:37;;;;;;;17.38;9.00;;;;;;;14.31;100.00;98600.81;5058814;28;20071;-80
2023/05/09 01:41:23;;;;;;;20.08;9.15;;;;;;;14.32;100.00;98607.72;5060340;28;20085;-80
2023/05/09 01:44:11;;;;;;;18.50;8.82;;;;;;;14.41;100.00;98606.34;5066300;28;20043;-79
2023/05/09 01:46:56;;;;;;;22.23;9.52;;;;;;;14.34;100.00;98594.28;5063880;28;20108;-79
2023/05/09 01:49:41;;;;;;;17.70;9.85;;;;;;;14.35;100.00;98591.44;5061091;28;20051;-80
2023/05/09 01:52:27;;;;;;;24.00;10.75;;;;;;;14.31;100.00;98600.03;5059834;28;20078;-80
2023/05/09 01:55:12;;;;;;;18.90;9.65;;;;;;;14.36;100.00;98592.22;5058617;28;20375;-80
2023/05/09 01:57:58;;;;;;;17.10;9.10;;;;;;;14.30;100.00;98593.16;5064603;28;20047;-80
2023/05/09 02:00:43;;;;;;;19.88;8.82;;;;;;;14.47;100.00;98580.88;5058079;28;20047;-80
2023/05/09 02:03:27;;;;;;;16.88;8.45;;;;;;;14.49;100.00;98588.53;5057788;28;20048;-79
2023/05/09 02:06:13;;;;;;;17.25;8.13;;;;;;;14.68;100.00;98587.38;5059880;28;20437;-79
2023/05/09 02:08:58;;;;;;;17.90;8.32;;;;;;;14.69;100.00;98586.31;5063345;28;20040;-80
2023/05/09 02:11:42;;;;;;;16.77;7.95;;;;;;;14.66;100.00;98581.50;5057649;28;20183;-80
2023/05/09 02:14:26;;;;;;;12.73;7.70;;;;;;;14.70;100.00;98581.84;5058622;28;20106;-80
2023/05/09 02:17:15;;;;;;;15.25;8.30;;;;;;;14.70;100.00;98582.66;5058262;28;20075;-80
2023/05/09 02:19:59;;;;;;;14.82;7.70;;;;;;;14.72;100.00;98595.66;5059639;28;20110;-80
2023/05/09 02:22:45;;;;;;;20.25;8.35;;;;;;;14.75;100.00;98599.69;5061746;28;20043;-80
2023/05/09 02:25:31;;;;;;;15.23;8.40;;;;;;;14.84;100.00;98596.47;5062818;28;20052;-79
2023/05/09 02:28:18;;;;;;;19.05;8.30;;;;;;;14.76;100.00;98591.50;5060731;28;20048;-80
2023/05/09 02:31:08;;;;;;;14.68;8.13;;;;;;;14.66;100.00;98602.66;5063105;28;20540;-80
2023/05/09 02:33:53;;;;;;;17.50;8.27;;;;;;;14.70;100.00;98598.50;5061775;28;20048;-79
2023/05/09 02:36:38;;;;;;;20.50;8.48;;;;;;;14.48;100.00;98606.22;5061388;28;20090;-79
2023/05/09 02:39:23;;;;;;;13.88;7.68;;;;;;;14.51;100.00;98597.03;5056801;28;20124;-79
2023/05/09 02:42:10;;;;;;;17.05;9.00;;;;;;;14.38;100.00;98596.25;5067665;28;20039;-79
2023/05/09 02:44:54;;;;;;;16.58;8.18;;;;;;;14.51;100.00;98597.03;5061663;28;20525;-79
2023/05/09 02:47:39;;;;;;;15.75;8.25;;;;;;;14.50;100.00;98593.59;5060365;28;20052;-79
2023/05/09 02:50:23;;;;;;;14.93;7.93;;;;;;;14.33;100.00;98582.91;5063418;28;20040;-80
2023/05/09 02:53:08;;;;;;;15.40;8.38;;;;;;;14.42;100.00;98581.53;5063440;28;20087;-80
2023/05/09 02:55:52;;;;;;;18.75;8.55;;;;;;;14.33;100.00;98579.47;5058736;28;20442;-80
2023/05/09 02:58:37;;;;;;;22.55;10.35;;;;;;;14.26;100.00;98587.50;5061559;28;20402;-80
2023/05/09 03:01:21;;;;;;;16.20;9.07;;;;;;;14.21;100.00;98576.84;5062110;28;20490;-79
2023/05/09 03:04:05;;;;;;;14.38;8.32;;;;;;;14.23;100.00;98577.41;5060543;28;20545;-80
2023/05/09 03:06:48;;;;;;;17.90;9.07;;;;;;;14.18;100.00;98570.19;5053547;28;20072;-80
2023/05/09 03:09:32;;;;;;;20.33;8.75;;;;;;;14.19;100.00;98581.56;5057769;28;20629;-80
2023/05/09 03:12:16;;;;;;;20.50;8.70;;;;;;;14.23;100.00;98578.22;5059226;28;20089;-80
2023/05/09 03:15:01;;;;;;;16.40;8.13;;;;;;;14.27;100.00;98576.75;5057924;28;20036;-80
2023/05/09 03:17:45;;;;;;;16.77;7.90;;;;;;;14.24;100.00;98579.03;5059386;28;20549;-80
2023/05/09 03:20:29;;;;;;;16.13;7.93;;;;;;;14.22;100.00;98578.47;5063744;28;20111;-80
2023/05/09 03:23:13;;;;;;;19.25;8.68;;;;;;;14.27;100.00;98573.28;5061018;28;20454;-80
2023/05/09 03:25:57;;;;;;;20.40;8.95;;;;;;;14.18;100.00;98572.81;5055643;28;20514;-80
2023/05/09 03:28:41;;;;;;;13.93;7.68;;;;;;;14.13;100.00;98568.22;5058602;28;20036;-80
2023/05/09 03:31:25;;;;;;;27.08;8.52;;;;;;;14.19;100.00;98560.44;5053813;28;20398;-80
2023/05/09 03:34:13;;;;;;;16.02;8.13;;;;;;;14.23;100.00;98569.50;5061488;28;20047;-80
2023/05/09 03:36:57;;;;;;;22.35;10.50;;;;;;;14.29;100.00;98563.28;5053482;28;20317;-80
2023/05/09 03:39:41;;;;;;;19.23;9.68;;;;;;;14.28;100.00;98556.41;5056323;28;20418;-80
2023/05/09 03:42:25;;;;;;;20.58;9.35;;;;;;;14.30;100.00;98567.53;5053776;28;20474;-80
2023/05/09 03:45:09;;;;;;;22.92;11.27;;;;;;;14.28;100.00;98567.78;5062765;28;20036;-81
2023/05/09 03:47:53;;;;;;;28.73;12.02;;;;;;;14.30;100.00;98570.19;5062756;28;20024;-80
2023/05/09 03:50:37;;;;;;;25.02;13.48;;;;;;;14.38;100.00;98574.31;5053151;28;20564;-80
2023/05/09 03:53:22;;;;;;;22.40;11.20;;;;;;;14.41;100.00;98558.81;5059070;28;20039;-80
2023/05/09 03:56:06;;;;;;;19.85;9.98;;;;;;;14.42;100.00;98565.72;5054134;28;20048;-80
2023/05/09 03:58:50;;;;;;;19.90;9.50;;;;;;;14.33;100.00;98566.28;5059589;28;20070;-80
2023/05/09 04:01:34;;;;;;;24.80;8.30;;;;;;;14.26;100.00;98571.69;5066239;28;20050;-80
2023/05/09 04:04:18;;;;;;;21.45;9.25;;;;;;;14.32;100.00;98560.19;5060015;28;20075;-80
2023/05/09 04:07:02;;;;;;;21.77;10.18;;;;;;;14.23;100.00;98554.44;5058521;28;20454;-80
2023/05/09 04:09:46;;;;;;;26.67;11.60;;;;;;;14.19;100.00;98561.22;5052976;28;20457;-79
2023/05/09 04:12:30;;;;;;;27.15;11.00;;;;;;;14.29;100.00;98560.66;5054354;28;20040;-79
2023/05/09 04:15:14;;;;;;;18.85;10.27;;;;;;;14.40;100.00;98562.50;5059685;28;20105;-80
2023/05/09 04:17:59;;;;;;;19.95;10.70;;;;;;;14.38;100.00;98558.47;5062254;28;20055;-79
2023/05/09 04:20:42;;;;;;;26.55;11.13;;;;;;;14.37;100.00;98556.88;5055947;28;20051;-80
2023/05/09 04:23:29;;;;;;;24.92;12.27;;;;;;;14.46;100.00;98549.41;5065570;28;20116;-80
2023/05/09 04:26:14;;;;;;;27.75;11.02;;;;;;;14.31;100.00;98547.25;5056798;28;20047;-80
2023/05/09 04:28:58;;;;;;;26.52;14.02;;;;;;;14.43;100.00;98551.47;5054223;28;20095;-80
2023/05/09 04:31:42;;;;;;;30.02;13.95;;;;;;;14.41;100.00;98553.53;5061835;28;20837;-80
2023/05/09 04:34:27;;;;;;;31.85;15.38;;;;;;;14.27;100.00;98555.63;5065736;28;20059;-80
2023/05/09 04:37:12;;;;;;;28.20;14.45;;;;;;;14.28;100.00;98557.22;5058465;28;20102;-80
2023/05/09 04:39:56;;;;;;;28.67;15.23;;;;;;;14.61;100.00;98562.94;5057738;28;20101;-81
2023/05/09 04:42:41;;;;;;;32.40;14.90;;;;;;;14.76;100.00;98562.47;5062818;28;20092;-81
2023/05/09 04:45:25;;;;;;;33.30;14.32;;;;;;;14.89;100.00;98563.25;5062167;28;20505;-79
2023/05/09 04:48:09;;;;;;;30.90;15.05;;;;;;;14.90;100.00;98554.28;5065543;28;20063;-80
2023/05/09 04:50:53;;;;;;;29.75;13.65;;;;;;;15.12;100.00;98551.75;5063407;28;20043;-80
2023/05/09 04:53:37;;;;;;;21.35;11.65;;;;;;;15.20;100.00;98556.69;5059596;28;20450;-80
2023/05/09 04:56:21;;;;;;;25.75;12.98;;;;;;;15.19;100.00;98555.09;5068918;28;20398;-81
2023/05/09 04:59:05;;;;;;;21.98;11.50;;;;;;;15.30;100.00;98547.31;5060939;28;20043;-80
2023/05/09 05:01:49;;;;;;;25.83;11.98;;;;;;;15.05;100.00;98545.81;5060384;28;20043;-80
2023/05/09 05:04:33;;;;;;;29.10;12.15;;;;;;;15.44;100.00;98547.84;5058121;28;20541;-80
2023/05/09 05:07:17;;;;;;;24.35;11.95;;;;;;;15.51;100.00;98533.41;5060789;28;20425;-80
2023/05/09 05:10:01;;;;;;;28.63;11.90;;;;;;;15.61;100.00;98534.63;5062354;28;20047;-80
2023/05/09 05:12:45;;;;;;;22.45;11.57;;;;;;;15.66;100.00;98530.22;5059528;28;20079;-80
2023/05/09 05:15:29;;;;;;;20.58;11.27;;;;;;;15.62;100.00;98536.22;5056545;28;20075;-79
2023/05/09 05:18:13;;;;;;;26.13;12.45;;;;;;;15.50;100.00;98531.81;5056271;28;20040;-80
2023/05/09 05:20:57;;;;;;;20.77;11.48;;;;;;;15.74;100.00;98536.16;5056885;28;20457;-80
2023/05/09 05:23:41;;;;;;;21.27;11.55;;;;;;;15.90;100.00;98531.91;5057447;28;20149;-80
2023/05/09 05:26:25;;;;;;;22.33;12.25;;;;;;;15.84;100.00;98537.09;5059167;28;20056;-80
2023/05/09 05:29:10;;;;;;;22.58;12.38;;;;;;;15.89;100.00;98532.97;5061435;28;20059;-80
2023/05/09 05:31:54;;;;;;;22.10;11.60;;;;;;;15.68;100.00;98533.44;5059824;28;20049;-79
2023/05/09 05:34:38;;;;;;;22.15;11.13;;;;;;;15.42;100.00;98537.50;5060157;28;20039;-80
2023/05/09 05:37:22;;;;;;;19.15;10.35;;;;;;;15.37;100.00;98537.41;5058566;28;20486;-80
2023/05/09 05:40:07;;;;;;;17.30;10.18;;;;;;;15.56;100.00;98530.88;5061200;28;20040;-80
2023/05/09 05:42:51;;;;;;;27.63;11.30;;;;;;;15.88;100.00;98534.78;5060690;28;20047;-80
2023/05/09 05:45:35;;;;;;;18.00;10.88;;;;;;;16.19;100.00;98535.25;5061924;28;20097;-80
2023/05/09 05:48:19;;;;;;;21.05;9.60;;;;;;;16.31;100.00;98532.53;5065770;28;20044;-78
2023/05/09 05:51:06;;;;;;;20.90;9.57;;;;;;;16.41;100.00;98534.50;5064182;28;20539;-79
2023/05/09 05:53:50;;;;;;;14.52;8.32;;;;;;;16.30;100.00;98522.94;5060549;28;20048;-79
2023/05/09 05:56:34;;;;;;;13.95;7.78;;;;;;;16.10;100.00;98513.69;5056368;28;20103;-80
2023/05/09 05:59:18;;;;;;;14.77;7.85;;;;;;;16.20;100.00;98502.41;5058683;28;20123;-82
2023/05/09 06:02:02;;;;;;;16.98;8.88;;;;;;;16.11;100.00;98503.91;5063660;28;20098;-80
2023/05/09 06:04:46;;;;;;;12.50;7.53;;;;;;;15.93;100.00;98507.63;5060434;28;20097;-80
2023/05/09 06:07:30;;;;;;;15.07;8.20;;;;;;;15.99;100.00;98509.31;5061251;28;20039;-81
2023/05/09 06:10:17;;;;;;;19.85;9.18;;;;;;;15.79;100.00;98502.63;5060251;28;20055;-83
2023/05/09 06:13:01;;;;;;;17.70;9.07;;;;;;;15.73;100.00;98498.31;5062185;28;20043;-79
2023/05/09 06:15:45;;;;;;;17.25;9.07;;;;;;;15.70;100.00;98499.59;5054238;28;20044;-80
2023/05/09 06:18:29;;;;;;;17.83;9.95;;;;;;;15.84;100.00;98492.13;5056456;28;20086;-79
2023/05/09 06:21:13;;;;;;;15.52;9.43;;;;;;;16.06;100.00;98496.69;5055514;28;20048;-80
2023/05/09 06:23:57;;;;;;;16.50;8.25;;;;;;;16.01;100.00;98496.63;5059577;28;20090;-79
2023/05/09 06:26:42;;;;;;;15.05;9.00;;;;;;;16.07;100.00;98498.28;5062968;28;20151;-80
2023/05/09 06:29:26;;;;;;;14.93;7.68;;;;;;;16.21;100.00;98497.94;5060274;28;20089;-82
2023/05/09 06:32:10;;;;;;;15.02;7.13;;;;;;;16.18;100.00;98503.72;5050443;28;20094;-81
2023/05/09 06:34:54;;;;;;;13.15;6.70;;;;;;;16.11;100.00;98502.06;5062953;28;20456;-82
2023/05/09 06:37:38;;;;;;;18.67;8.15;;;;;;;16.27;100.00;98504.91;5061001;28;20102;-81
2023/05/09 06:40:22;;;;;;;19.65;6.88;;;;;;;16.35;100.00;98504.50;5060100;28;20399;-82
2023/05/09 06:43:06;;;;;;;;;;;;;;;16.78;100.00;98520.59;5058214;28;20366;-81
2023/05/09 06:45:50;;;;;;;15.07;6.85;;;;;;;16.99;100.00;98521.66;5049662;28;20409;-81
2023/05/09 06:48:34;;;;;;;15.07;7.72;;;;;;;17.81;100.00;98518.13;5057563;28;20043;-81
2023/05/09 06:51:18;;;;;;;10.63;5.55;;;;;;;17.99;100.00;98516.13;5057383;28;20530;-82
2023/05/09 06:54:02;;;;;;;12.70;6.03;;;;;;;18.36;100.00;98512.63;5059199;28;20111;-82
2023/05/09 06:56:46;;;;;;;10.93;5.78;;;;;;;18.41;100.00;98531.25;5054365;28;20098;-79
2023/05/09 06:59:30;;;;;;;9.85;5.45;;;;;;;18.12;100.00;98517.53;5057333;28;20060;-81
2023/05/09 07:02:15;;;;;;;12.68;6.43;;;;;;;18.10;100.00;98525.78;5054425;28;20390;-75
2023/05/09 07:04:59;;;;;;;13.48;7.50;;;;;;;18.21;100.00;98521.31;5056562;28;20094;-75
2023/05/09 07:07:44;;;;;;;10.80;5.68;;;;;;;18.34;100.00;98524.56;5060386;28;20039;-75
2023/05/09 07:10:28;;;;;;;11.25;5.68;;;;;;;18.25;100.00;98519.75;5055605;28;20502;-76
2023/05/09 07:13:12;;;;;;;13.25;5.30;;;;;;;18.55;100.00;98520.16;5054044;28;20055;-75
2023/05/09 07:15:57;;;;;;;10.73;5.43;;;;;;;18.65;100.00;98522.81;5055715;28;20098;-75
2023/05/09 07:27:37;;;;;;;14.75;5.53;;;;;;;18.20;100.00;98535.66;5673661;23;20069;-80
2023/05/09 07:30:21;;;;;;;15.45;5.78;;;;;;;18.04;100.00;98537.41;4873257;29;20113;-79
2023/05/09 07:33:06;;;;;;;10.52;5.25;;;;;;;18.17;100.00;98508.81;4871033;29;20056;-80
2023/05/09 07:35:51;;;;;;;15.65;5.72;;;;;;;18.77;100.00;98529.78;4870245;29;20077;-76
2023/05/09 07:38:36;;;;;;;12.15;5.28;;;;;;;19.09;100.00;98523.53;4865988;29;20052;-77
2023/05/09 07:41:19;;;;;;;20.42;5.85;;;;;;;19.35;100.00;98518.22;4871404;29;20451;-77
2023/05/09 07:44:04;;;;;;;13.88;5.90;;;;;;;19.22;100.00;98522.22;4866975;29;20043;-77
2023/05/09 07:46:48;;;;;;;17.48;7.20;;;;;;;19.38;100.00;98520.38;4870255;29;20178;-77
2023/05/09 07:49:32;;;;;;;9.02;4.93;;;;;;;19.50;100.00;98520.91;4867444;29;20056;-77
2023/05/09 07:52:16;;;;;;;12.77;5.22;;;;;;;19.28;100.00;98521.16;4869326;29;20399;-77
2023/05/09 07:55:00;;;;;;;12.73;5.10;;;;;;;18.94;100.00;98517.09;4869204;29;20048;-77
2023/05/09 07:57:44;;;;;;;11.25;5.28;;;;;;;18.52;100.00;98510.81;4872218;29;20040;-77
2023/05/09 08:00:28;;;;;;;13.43;5.35;;;;;;;18.47;100.00;98515.31;4868211;29;20127;-77
2023/05/09 08:03:12;;;;;;;12.52;5.10;;;;;;;18.23;100.00;98513.09;4866923;29;20146;-77
2023/05/09 08:05:56;;;;;;;10.00;4.90;;;;;;;18.52;100.00;98518.00;4865056;29;20048;-77
2023/05/09 08:08:40;;;;;;;12.73;4.45;;;;;;;18.31;100.00;98520.59;4879386;29;20112;-77
2023/05/09 08:11:24;;;;;;;10.13;4.65;;;;;;;18.33;100.00;98521.13;4872745;29;20047;-79
2023/05/09 08:14:08;;;;;;;10.38;4.47;;;;;;;18.31;100.00;98501.16;4871108;29;20048;-77
2023/05/09 08:16:52;;;;;;;11.82;4.38;;;;;;;18.21;100.00;98516.00;4867221;29;20061;-77
2023/05/09 08:19:36;;;;;;;13.88;5.15;;;;;;;18.38;100.00;98515.81;4873815;29;20526;-79
2023/05/09 08:22:20;;;;;;;12.50;4.90;;;;;;;18.30;100.00;98512.84;4865850;29;20049;-77
2023/05/09 08:25:04;;;;;;;9.93;4.50;;;;;;;18.68;100.00;98502.91;4870089;29;20136;-77
2023/05/09 08:27:48;;;;;;;12.57;4.70;;;;;;;19.20;100.00;98506.50;4874066;29;20109;-76
2023/05/09 08:30:32;;;;;;;9.75;4.25;;;;;;;19.11;100.00;98508.88;4866564;29;20060;-76
2023/05/09 08:33:16;;;;;;;10.75;4.45;;;;;;;19.53;100.00;98507.06;4874190;29;20100;-77
2023/05/09 08:36:01;;;;;;;15.38;4.60;;;;;;;19.68;100.00;98502.81;4866298;29;20052;-78
2023/05/09 08:38:45;;;;;;;13.70;5.07;;;;;;;20.16;100.00;98504.34;4871135;29;20100;-78
2023/05/09 08:41:34;;;;;;;9.98;4.20;;;;;;;20.15;100.00;98500.06;4872466;29;20052;-78
2023/05/09 08:44:22;;;;;;;11.85;4.13;;;;;;;20.51;100.00;98491.94;4864272;29;20052;-78
2023/05/09 08:47:07;;;;;;;13.02;4.68;;;;;;;20.24;100.00;98491.25;4864196;29;20511;-78
2023/05/09 08:49:52;;;;;;;10.70;3.95;;;;;;;19.80;100.00;98495.31;4869266;29;20129;-78
2023/05/09 08:52:37;;;;;;;12.27;5.07;;;;;;;19.57;100.00;98495.88;4867611;29;20547;-77
2023/05/09 08:55:21;;;;;;;10.55;4.90;;;;;;;19.14;100.00;98494.28;4870537;29;20396;-79
2023/05/09 08:58:05;;;;;;;11.15;4.88;;;;;;;19.18;100.00;98497.22;4866492;29;20448;-77
2023/05/09 09:00:50;;;;;;;16.48;4.80;;;;;;;19.82;100.00;98487.84;4866754;29;20118;-77
2023/05/09 09:03:36;;;;;;;14.63;5.10;;;;;;;20.07;100.00;98499.56;4872151;29;20044;-77
2023/05/09 09:06:22;;;;;;;16.95;5.93;;;;;;;19.79;100.00;98499.03;4867793;29;20052;-77
2023/05/09 09:09:07;;;;;;;12.88;5.88;;;;;;;19.76;100.00;98502.25;4874036;29;20044;-77
2023/05/09 09:11:52;;;;;;;13.00;5.38;;;;;;;19.88;100.00;98501.97;4865716;29;20048;-76
2023/05/09 09:14:38;;;;;;;13.77;5.50;;;;;;;20.14;100.00;98507.25;4866649;29;20472;-76
2023/05/09 09:17:26;;;;;;;17.20;6.78;;;;;;;20.47;100.00;98493.56;4867380;29;20052;-75
2023/05/09 09:20:13;;;;;;;11.50;5.63;;;;;;;20.71;99.12;98501.69;4869502;29;20068;-77
2023/05/09 09:23:04;;;;;;;8.27;4.10;;;;;;;20.58;96.75;98487.09;4866930;29;20051;-77
2023/05/09 09:25:55;;;;;;;12.30;4.43;;;;;;;20.12;96.02;98475.56;4869098;29;20067;-78
2023/05/09 09:28:41;;;;;;;8.32;4.38;;;;;;;19.68;96.62;98476.97;4869243;29;20053;-78
2023/05/09 09:31:30;;;;;;;12.48;4.35;;;;;;;19.74;97.52;98493.72;4863486;29;20052;-77
2023/05/09 09:34:20;;;;;;;12.68;4.88;;;;;;;19.22;98.49;98493.75;4873314;29;20132;-76
2023/05/09 09:37:05;;;;;;;8.75;4.20;;;;;;;18.95;100.00;98476.13;4871773;29;20044;-77
2023/05/09 09:39:54;;;;;;;12.48;4.55;;;;;;;19.07;98.46;98472.47;4871866;29;20430;-77
2023/05/09 09:42:47;;;;;;;9.20;4.40;;;;;;;19.22;99.91;98475.13;4867341;29;20056;-77
2023/05/09 09:45:31;;;;;;;12.20;4.78;;;;;;;19.56;99.34;98468.47;4873433;29;20059;-79
2023/05/09 09:48:15;;;;;;;12.88;3.90;;;;;;;19.74;97.73;98469.78;4869844;29;20051;-78
2023/05/09 09:51:17;;;;;;;7.85;4.18;;;;;;;19.68;97.47;98468.97;4870154;29;20451;-77
2023/05/09 09:54:03;;;;;;;9.63;4.60;;;;;;;19.62;96.46;98467.41;4868841;29;20133;-77
2023/05/09 09:56:50;;;;;;;9.23;4.32;;;;;;;19.83;95.95;98462.81;4868577;29;20044;-77
2023/05/09 09:59:34;;;;;;;11.35;4.10;;;;;;;19.62;95.87;98474.56;4873422;29;20173;-77
2023/05/09 10:02:22;;;;;;;10.43;4.28;;;;;;;19.81;94.76;98472.94;4872420;29;20411;-77
2023/05/09 10:05:07;;;;;;;9.00;4.00;;;;;;;19.63;95.14;98465.50;4870915;29;20100;-77
2023/05/09 10:08:03;;;;;;;6.32;3.65;;;;;;;20.05;95.04;98464.41;4869584;29;20040;-76
2023/05/09 10:10:47;;;;;;;10.52;3.80;;;;;;;20.30;91.54;98468.03;4866695;29;20044;-78
2023/05/09 10:13:35;;;;;;;12.13;4.78;;;;;;;20.81;91.29;98459.03;4869083;29;20045;-78
2023/05/09 10:16:19;;;;;;;7.32;3.80;;;;;;;21.16;91.84;98459.03;4871405;29;20060;-79
2023/05/09 10:19:04;;;;;;;13.25;4.50;;;;;;;21.17;90.22;98449.94;4871837;29;20061;-77
2023/05/09 10:21:52;;;;;;;10.23;4.22;;;;;;;21.01;90.26;98456.47;4869527;29;20085;-77
2023/05/09 10:24:46;;;;;;;9.50;3.80;;;;;;;21.25;90.12;98449.38;4870867;29;20123;-77
2023/05/09 10:27:34;;;;;;;12.88;4.00;;;;;;;21.47;88.37;98469.47;4865698;29;20137;-77
2023/05/09 10:30:22;;;;;;;9.95;4.00;;;;;;;21.31;87.07;98450.09;4874283;29;20064;-80
2023/05/09 10:33:07;;;;;;;9.65;3.95;;;;;;;;;;4872708;29;20444;-80
2023/05/09 10:35:54;;;;;;;7.38;3.50;;;;;;;21.31;87.53;98454.66;4868622;29;20051;-78
2023/05/09 10:38:39;;;;;;;11.32;4.35;;;;;;;21.34;88.11;98446.09;4871253;29;20051;-79
2023/05/09 10:41:24;;;;;;;11.88;3.80;;;;;;;21.56;88.14;98440.28;4868247;29;20416;-79
2023/05/09 10:44:09;;;;;;;11.48;4.15;;;;;;;21.93;88.28;98454.09;4873938;29;20105;-77
2023/05/09 10:46:54;;;;;;;11.77;3.45;;;;;;;21.66;87.35;98450.88;4870120;29;20048;-78
2023/05/09 10:49:39;;;;;;;7.50;3.78;;;;;;;22.24;85.89;98438.50;4871731;29;20562;-79
2023/05/09 10:52:23;;;;;;;8.13;3.65;;;;;;;22.02;85.05;98435.56;4868629;29;20047;-78
2023/05/09 10:55:08;;;;;;;7.90;3.58;;;;;;;21.99;83.54;98436.91;4870233;29;20526;-78
2023/05/09 10:57:53;;;;;;;9.27;3.65;;;;;;;22.29;83.80;98418.94;4868583;29;20087;-78
2023/05/09 11:00:41;;;;;;;9.88;3.88;;;;;;;22.36;82.54;98427.38;4871078;29;20416;-78
2023/05/09 11:03:26;;;;;;;7.70;3.58;;;;;;;22.79;82.49;98421.22;4870581;29;20680;-80
2023/05/09 11:06:44;;;;;;;5.75;3.17;;;;;;;22.85;80.47;98419.25;4862428;29;20057;-78
2023/05/09 11:09:37;;;;;;;7.57;3.30;;;;;;;23.05;80.38;98417.34;4871984;29;20040;-80
2023/05/09 11:12:22;;;;;;;14.82;4.22;;;;;;;23.04;80.49;98405.81;4872709;29;20115;-79
2023/05/09 11:15:07;;;;;;;7.90;3.42;;;;;;;23.46;78.97;98405.16;4872365;29;20044;-80
2023/05/09 11:18:09;;;;;;;9.68;3.88;;;;;;;22.87;78.71;98416.25;4867999;29;20411;-79
2023/05/09 11:20:54;;;;;;;8.18;4.38;;;;;;;23.09;77.97;98396.94;4872935;29;20048;-80
2023/05/09 11:23:38;;;;;;;9.73;3.80;;;;;;;23.36;78.54;98400.78;4867499;29;20101;-80
2023/05/09 11:26:28;;;;;;;9.45;3.63;;;;;;;24.47;77.08;98399.16;4868422;29;20055;-80
2023/05/09 11:29:12;;;;;;;5.50;3.45;;;;;;;24.89;76.09;98401.72;4871941;29;20531;-79
2023/05/09 11:32:09;;;;;;;12.95;4.28;;;;;;;24.60;76.50;98398.34;4871035;29;20479;-79
2023/05/09 11:35:14;;;;;;;7.88;3.60;;;;;;;24.39;74.97;98393.44;4866278;29;20048;-79
2023/05/09 11:38:04;;;;;;;7.47;3.65;;;;;;;23.97;75.76;98398.00;4867260;29;20052;-80
2023/05/09 11:40:50;;;;;;;8.48;3.88;;;;;;;23.53;75.72;98390.28;4870461;29;20523;-80
2023/05/09 11:43:36;;;;;;;11.45;3.67;;;;;;;23.40;74.35;98391.09;4868357;29;20654;-80
2023/05/09 11:46:20;;;;;;;9.05;3.95;;;;;;;22.64;75.66;98392.00;4868093;29;20403;-79
2023/05/09 11:49:06;;;;;;;10.40;3.50;;;;;;;22.23;76.79;98398.69;4871983;29;20121;-82
2023/05/09 11:51:50;;;;;;;12.13;4.35;;;;;;;22.25;78.74;98391.19;4868648;29;20502;-80
2023/05/09 11:54:38;;;;;;;12.02;3.97;;;;;;;22.21;77.93;98387.50;4867822;29;20048;-79
2023/05/09 11:57:22;;;;;;;7.75;3.83;;;;;;;22.54;78.40;98387.59;4868028;29;20177;-79
2023/05/09 12:00:09;;;;;;;9.00;3.80;;;;;;;23.01;77.70;98384.22;4868822;29;20146;-79
2023/05/09 12:02:53;;;;;;;10.13;4.50;;;;;;;22.94;77.81;98382.69;4869236;29;20489;-79
2023/05/09 12:05:41;;;;;;;13.60;4.53;;;;;;;23.08;75.58;98384.63;4862968;29;20113;-79
2023/05/09 12:08:26;;;;;;;7.78;3.90;;;;;;;22.60;75.70;98373.09;4869342;29;20088;-79
2023/05/09 12:11:12;;;;;;;10.55;4.28;;;;;;;22.93;75.62;98391.03;4867979;29;20566;-79
2023/05/09 12:13:56;;;;;;;10.25;4.03;;;;;;;22.48;74.03;98391.44;4867820;29;20040;-80
2023/05/09 12:16:46;;;;;;;10.57;3.70;;;;;;;22.28;75.55;98384.44;4867149;29;20097;-79
2023/05/09 12:19:30;;;;;;;8.60;3.47;;;;;;;22.05;75.54;98387.69;4867382;29;20068;-78
2023/05/09 12:22:14;;;;;;;11.25;3.42;;;;;;;22.50;72.48;98381.25;4867256;29;20059;-78
2023/05/09 12:25:01;;;;;;;9.77;3.63;;;;;;;21.93;70.57;98373.94;4867337;29;20040;-78
2023/05/09 12:27:45;;;;;;;6.93;3.08;;;;;;;22.23;70.82;98374.66;4870497;29;20060;-78
2023/05/09 12:30:30;;;;;;;8.85;3.45;;;;;;;21.63;73.55;98359.84;4866109;29;20152;-79
2023/05/09 12:33:14;;;;;;;6.55;2.70;;;;;;;21.27;73.02;98369.00;4870091;29;20444;-78
2023/05/09 12:36:10;;;;;;;11.05;3.40;;;;;;;22.08;73.40;98365.75;4872068;29;20506;-78
2023/05/09 12:38:54;;;;;;;7.97;3.28;;;;;;;21.73;72.96;98365.09;4864313;29;20047;-79
2023/05/09 12:41:45;;;;;;;11.57;3.65;;;;;;;21.49;74.08;98360.53;4863948;29;20551;-78
2023/05/09 12:44:29;;;;;;;8.82;3.17;;;;;;;22.25;73.76;98359.09;4869411;29;20051;-78
2023/05/09 12:47:13;;;;;;;7.70;3.40;;;;;;;22.32;71.51;98362.22;4873314;29;20125;-78
2023/05/09 12:50:01;;;;;;;6.82;2.70;;;;;;;22.55;71.12;98349.06;4869546;29;20056;-79
2023/05/09 12:52:50;;;;;;;6.85;3.20;;;;;;;23.07;68.23;98340.22;4868950;29;20059;-78
2023/05/09 12:55:42;;;;;;;7.03;2.92;;;;;;;23.66;68.97;98353.88;4866279;29;20092;-80